createdAt,value
2023-05-03T00:00:18.723Z,1.70
2023-05-03T00:03:07.663Z,1.10
2023-05-03T00:05:36.509Z,1.60
2023-05-03T00:08:05.786Z,0.70
2023-05-03T00:10:34.781Z,1.50
2023-05-03T00:13:03.660Z,0.80
2023-05-03T00:15:32.745Z,0.60
2023-05-03T00:18:01.641Z,0.70
2023-05-03T00:20:30.802Z,1.10
2023-05-03T00:22:59.617Z,2.10
2023-05-03T00:25:28.517Z,0.90
2023-05-03T00:27:57.972Z,0.70
2023-05-03T00:30:26.832Z,2.20
2023-05-03T00:32:55.669Z,0.90
2023-05-03T00:35:24.410Z,2.10
2023-05-03T00:37:53.070Z,1.30
2023-05-03T00:40:21.768Z,1.00
2023-05-03T00:42:51.224Z,1.10
2023-05-03T00:45:19.881Z,1.20
2023-05-03T00:47:49.160Z,1.20
2023-05-03T00:50:18.037Z,2.00
2023-05-03T00:52:47.475Z,1.90
2023-05-03T00:55:16.442Z,0.80
2023-05-03T00:57:45.189Z,1.10
2023-05-03T01:00:14.879Z,1.10
2023-05-03T01:02:43.581Z,1.00
2023-05-03T01:05:12.932Z,0.70
2023-05-03T01:08:01.880Z,0.80
2023-05-03T01:10:50.140Z,1.30
2023-05-03T01:13:53.697Z,1.70
2023-05-03T01:16:29.887Z,1.00
2023-05-03T01:19:05.018Z,0.80
2023-05-03T01:21:36.071Z,1.00
2023-05-03T01:24:09.163Z,0.80
2023-05-03T01:26:37.928Z,1.30
2023-05-03T01:29:07.732Z,2.30
2023-05-03T01:32:01.648Z,1.40
2023-05-03T01:34:56.426Z,1.30
2023-05-03T01:37:26.113Z,1.20
2023-05-03T01:40:02.127Z,1.10
2023-05-03T01:42:33.413Z,1.30
2023-05-03T01:45:04.851Z,1.60
2023-05-03T01:47:34.335Z,1.20
2023-05-03T01:50:03.661Z,1.50
2023-05-03T01:52:35.147Z,1.80
2023-05-03T01:55:05.537Z,1.10
2023-05-03T01:57:34.979Z,1.60
2023-05-03T02:00:05.328Z,1.30
2023-05-03T02:02:35.563Z,1.20
2023-05-03T02:05:05.739Z,1.90
2023-05-03T02:07:35.537Z,2.30
2023-05-03T02:10:09.447Z,1.90
2023-05-03T02:12:38.898Z,2.20
2023-05-03T02:15:09.349Z,1.80
2023-05-03T02:17:39.429Z,1.70
2023-05-03T02:20:10.462Z,1.20
2023-05-03T02:22:39.703Z,1.60
2023-05-03T02:25:09.368Z,1.60
2023-05-03T02:27:38.988Z,2.30
2023-05-03T02:30:09.407Z,1.10
2023-05-03T02:32:38.929Z,2.90
2023-05-03T02:35:10.150Z,2.00
2023-05-03T02:37:39.516Z,2.20
2023-05-03T02:40:13.122Z,2.20
2023-05-03T02:42:42.378Z,2.00
2023-05-03T02:45:12.382Z,1.50
2023-05-03T02:47:41.643Z,2.10
2023-05-03T02:50:11.096Z,1.40
2023-05-03T02:52:40.758Z,2.40
2023-05-03T02:55:11.089Z,1.30
2023-05-03T02:57:42.432Z,2.10
2023-05-03T03:00:16.098Z,1.40
2023-05-03T03:02:45.889Z,1.90
2023-05-03T03:05:17.099Z,1.70
2023-05-03T03:07:47.766Z,1.80
2023-05-03T03:10:17.852Z,2.60
2023-05-03T03:12:48.508Z,2.10
2023-05-03T03:15:18.473Z,1.60
2023-05-03T03:17:48.534Z,2.90
2023-05-03T03:20:18.356Z,1.40
2023-05-03T03:22:47.667Z,1.70
2023-05-03T03:25:17.390Z,2.90
2023-05-03T03:27:46.910Z,1.80
2023-05-03T03:30:16.470Z,1.60
2023-05-03T03:32:46.024Z,2.50
2023-05-03T03:35:17.750Z,2.00
2023-05-03T03:37:46.917Z,1.80
2023-05-03T03:40:16.524Z,1.60
2023-05-03T03:42:46.153Z,1.90
2023-05-03T03:45:15.668Z,2.00
2023-05-03T03:47:44.855Z,2.50
2023-05-03T03:50:13.994Z,1.30
2023-05-03T03:52:43.333Z,2.00
2023-05-03T03:55:12.737Z,2.50
2023-05-03T03:57:42.431Z,2.60
2023-05-03T04:00:15.605Z,2.00
2023-05-03T04:02:46.752Z,1.80
2023-05-03T04:05:17.624Z,2.40
2023-05-03T04:07:46.974Z,2.40
2023-05-03T04:10:16.750Z,2.30
2023-05-03T04:12:46.226Z,3.60
2023-05-03T04:15:15.373Z,2.40
2023-05-03T04:17:44.952Z,1.50
2023-05-03T04:20:15.232Z,2.00
2023-05-03T04:22:44.649Z,2.70
2023-05-03T04:25:17.966Z,2.50
2023-05-03T04:27:48.546Z,1.80
2023-05-03T04:30:18.164Z,1.60
2023-05-03T04:32:48.129Z,2.30
2023-05-03T04:35:19.205Z,2.70
2023-05-03T04:37:48.461Z,1.50
2023-05-03T04:40:20.137Z,2.30
2023-05-03T04:42:49.276Z,2.40
2023-05-03T04:45:19.356Z,2.00
2023-05-03T04:47:48.795Z,2.10
2023-05-03T04:50:18.164Z,2.30
2023-05-03T04:52:48.443Z,2.90
2023-05-03T04:55:17.382Z,3.30
2023-05-03T04:57:46.546Z,2.10
2023-05-03T05:00:17.130Z,2.60
2023-05-03T05:02:46.520Z,2.40
2023-05-03T05:05:17.965Z,3.30
2023-05-03T05:07:47.997Z,2.10
2023-05-03T05:10:17.353Z,2.70
2023-05-03T05:12:46.930Z,2.00
2023-05-03T05:15:16.246Z,2.10
2023-05-03T05:17:45.417Z,2.30
2023-05-03T05:20:17.695Z,3.00
2023-05-03T05:22:48.228Z,2.40
2023-05-03T05:25:17.989Z,2.70
2023-05-03T05:27:47.298Z,2.40
2023-05-03T05:30:16.874Z,3.50
2023-05-03T05:32:46.059Z,2.60
2023-05-03T05:35:18.208Z,3.20
2023-05-03T05:37:48.570Z,4.40
2023-05-03T05:40:17.932Z,3.50
2023-05-03T05:42:49.165Z,2.50
2023-05-03T05:45:19.630Z,4.10
2023-05-03T05:47:49.509Z,4.30
2023-05-03T05:50:19.605Z,4.00
2023-05-03T05:52:53.684Z,2.60
2023-05-03T05:55:22.427Z,2.70
2023-05-03T05:57:51.415Z,4.40
2023-05-03T06:00:21.388Z,2.80
2023-05-03T06:02:50.691Z,4.70
2023-05-03T06:05:21.463Z,3.10
2023-05-03T06:07:50.999Z,2.70
2023-05-03T06:10:20.569Z,4.40
2023-05-03T06:12:49.609Z,4.50
2023-05-03T06:15:18.379Z,2.40
2023-05-03T06:17:48.114Z,3.20
2023-05-03T06:20:18.848Z,4.50
2023-05-03T06:22:47.986Z,3.20
2023-05-03T06:25:18.234Z,3.40
2023-05-03T06:27:47.955Z,3.80
2023-05-03T06:30:17.354Z,3.00
2023-05-03T06:32:49.472Z,3.20
2023-05-03T06:35:20.345Z,4.00
2023-05-03T06:37:50.122Z,2.90
2023-05-03T06:40:20.412Z,3.40
2023-05-03T06:42:50.052Z,4.10
2023-05-03T06:45:20.319Z,3.20
2023-05-03T06:47:50.906Z,3.70
2023-05-03T06:50:20.714Z,4.10
2023-05-03T06:52:50.454Z,3.70
2023-05-03T06:55:19.882Z,3.50
2023-05-03T06:57:49.837Z,4.60
2023-05-03T07:00:19.913Z,3.60
2023-05-03T07:02:50.046Z,4.10
2023-05-03T07:05:19.982Z,3.00
2023-05-03T07:07:48.932Z,3.00
2023-05-03T07:10:18.327Z,4.10
2023-05-03T07:12:47.478Z,2.70
2023-05-03T07:15:16.900Z,3.30
2023-05-03T07:17:45.941Z,4.20
2023-05-03T07:20:16.068Z,4.00
2023-05-03T07:22:45.592Z,3.30
2023-05-03T07:25:18.059Z,4.10
2023-05-03T07:27:47.782Z,3.70
2023-05-03T07:30:16.977Z,3.70
2023-05-03T07:32:46.677Z,2.30
2023-05-03T07:35:17.358Z,3.10
2023-05-03T07:37:46.937Z,3.50
2023-05-03T07:40:16.288Z,4.40
2023-05-03T07:42:45.518Z,2.20
2023-05-03T07:45:15.441Z,2.40
2023-05-03T07:47:44.993Z,2.40
2023-05-03T07:50:14.272Z,3.20
2023-05-03T07:52:45.223Z,4.20
2023-05-03T07:55:14.832Z,4.30
2023-05-03T07:57:44.174Z,1.90
2023-05-03T08:00:14.001Z,2.70
2023-05-03T08:02:43.359Z,2.30
2023-05-03T08:05:15.408Z,2.30
2023-05-03T08:07:45.597Z,2.50
2023-05-03T08:10:14.553Z,2.10
2023-05-03T08:12:44.272Z,2.50
2023-05-03T08:15:13.663Z,2.40
2023-05-03T08:17:44.734Z,2.50
2023-05-03T08:20:14.349Z,3.20
2023-05-03T08:22:45.588Z,2.40
2023-05-03T08:25:17.211Z,2.70
2023-05-03T08:27:46.333Z,2.80
2023-05-03T08:30:16.103Z,3.40
2023-05-03T08:32:45.289Z,2.40
2023-05-03T08:35:15.774Z,2.20
2023-05-03T08:37:46.086Z,3.00
2023-05-03T08:40:16.224Z,4.90
2023-05-03T08:42:46.773Z,2.20
2023-05-03T08:45:17.685Z,2.30
2023-05-03T08:47:47.045Z,3.80
2023-05-03T08:50:16.737Z,2.90
2023-05-03T08:52:46.139Z,2.60
2023-05-03T08:55:15.364Z,2.80
2023-05-03T08:57:44.813Z,3.30
2023-05-03T09:00:14.774Z,3.20
2023-05-03T09:02:43.995Z,3.40
2023-05-03T09:05:16.273Z,2.50
2023-05-03T09:08:05.420Z,2.90
2023-05-03T09:10:38.015Z,2.60
2023-05-03T09:13:08.144Z,2.30
2023-05-03T09:15:37.963Z,2.30
2023-05-03T09:18:08.485Z,2.00
2023-05-03T09:20:40.289Z,2.00
2023-05-03T09:23:10.744Z,3.60
2023-05-03T09:25:43.286Z,2.00
2023-05-03T09:28:17.611Z,2.30
2023-05-03T09:30:47.723Z,2.70
2023-05-03T09:33:22.625Z,3.00
2023-05-03T09:35:59.517Z,2.60
2023-05-03T09:38:30.537Z,2.00
2023-05-03T09:41:00.395Z,1.60
2023-05-03T09:43:30.052Z,1.90
2023-05-03T09:46:14.786Z,2.80
2023-05-03T09:48:43.996Z,2.40
2023-05-03T09:51:13.666Z,1.70
2023-05-03T09:53:43.437Z,1.80
2023-05-03T09:56:13.706Z,2.00
2023-05-03T09:58:47.261Z,3.10
2023-05-03T10:01:17.080Z,1.50
2023-05-03T10:03:50.837Z,2.80
2023-05-03T10:06:21.654Z,2.30
2023-05-03T10:09:15.356Z,1.60
2023-05-03T10:11:52.172Z,1.60
2023-05-03T10:14:22.958Z,1.50
2023-05-03T10:17:07.010Z,1.70
2023-05-03T10:19:52.252Z,1.40
2023-05-03T10:22:21.959Z,2.70
2023-05-03T10:25:03.811Z,1.30
2023-05-03T10:27:48.885Z,1.60
2023-05-03T10:30:27.051Z,1.40
2023-05-03T10:32:56.970Z,1.30
2023-05-03T10:35:30.685Z,1.20
2023-05-03T10:37:59.991Z,1.10
2023-05-03T10:40:43.833Z,2.00
2023-05-03T10:43:31.932Z,1.90
2023-05-03T10:46:05.665Z,1.20
2023-05-03T10:48:37.029Z,2.10
2023-05-03T10:51:28.665Z,1.50
2023-05-03T10:53:58.267Z,1.40
2023-05-03T10:56:27.862Z,1.10
2023-05-03T10:58:59.448Z,1.30
2023-05-03T11:01:31.199Z,3.40
2023-05-03T11:04:13.246Z,1.20
2023-05-03T11:06:42.760Z,0.90
2023-05-03T11:09:15.043Z,0.90
2023-05-03T11:11:44.459Z,1.40
2023-05-03T11:14:14.465Z,1.00
2023-05-03T11:16:48.397Z,1.00
2023-05-03T11:19:17.946Z,1.10
2023-05-03T11:21:48.471Z,1.50
2023-05-03T11:24:17.839Z,1.30
2023-05-03T11:26:47.062Z,1.40
2023-05-03T11:29:17.655Z,1.90
2023-05-03T11:31:47.442Z,1.20
2023-05-03T11:34:16.748Z,2.10
2023-05-03T11:36:46.146Z,1.80
2023-05-03T11:39:17.103Z,1.60
2023-05-03T11:42:03.581Z,1.70
2023-05-03T11:44:33.708Z,1.50
2023-05-03T11:47:03.661Z,1.40
2023-05-03T11:49:34.631Z,1.70
2023-05-03T11:52:04.655Z,1.10
2023-05-03T11:54:34.301Z,1.30
2023-05-03T11:57:17.632Z,1.40
2023-05-03T11:59:48.173Z,1.20
2023-05-03T12:02:19.874Z,1.30
2023-05-03T12:04:50.239Z,3.00
2023-05-03T12:07:22.336Z,2.90
2023-05-03T12:10:09.548Z,2.20
2023-05-03T12:12:47.016Z,1.60
2023-05-03T12:15:33.950Z,1.90
2023-05-03T12:18:10.545Z,1.60
2023-05-03T12:23:15.682Z,1.50
2023-05-03T12:25:49.148Z,1.60
2023-05-03T12:28:21.144Z,1.40
2023-05-03T12:30:53.200Z,1.20
2023-05-03T12:33:23.437Z,0.90
2023-05-03T12:35:54.414Z,1.40
2023-05-03T12:38:24.992Z,2.80
2023-05-03T12:40:55.722Z,1.40
2023-05-03T12:43:25.055Z,1.90
2023-05-03T12:46:23.468Z,1.30
2023-05-03T12:48:47.173Z,1.20
2023-05-03T12:51:20.354Z,1.70
2023-05-03T12:53:55.429Z,2.60
2023-05-03T12:56:25.943Z,2.00
2023-05-03T12:59:20.307Z,1.10
2023-05-03T13:04:41.405Z,1.50
2023-05-03T13:07:12.613Z,1.90
2023-05-03T13:12:36.992Z,1.00
2023-05-03T13:15:07.672Z,1.20
2023-05-03T13:17:37.224Z,1.30
2023-05-03T13:20:08.634Z,2.00
2023-05-03T13:22:38.224Z,1.60
2023-05-03T13:25:08.324Z,1.40
2023-05-03T13:27:37.682Z,1.90
2023-05-03T13:30:09.366Z,1.60
2023-05-03T13:32:40.142Z,1.70
2023-05-03T13:35:10.329Z,1.60
2023-05-03T13:37:39.331Z,1.90
2023-05-03T13:40:10.640Z,2.90
2023-05-03T13:42:39.951Z,2.00
2023-05-03T13:45:10.293Z,2.10
2023-05-03T13:47:59.555Z,2.00
2023-05-03T13:50:31.547Z,1.90
2023-05-03T13:53:01.239Z,1.70
2023-05-03T13:55:30.903Z,2.00
2023-05-03T13:58:00.985Z,1.70
2023-05-03T14:00:32.116Z,2.10
2023-05-03T14:03:02.371Z,2.50
2023-05-03T14:05:32.151Z,2.80
2023-05-03T14:08:01.861Z,2.40
2023-05-03T14:10:34.601Z,2.40
2023-05-03T14:13:04.226Z,2.80
2023-05-03T14:15:34.129Z,2.90
2023-05-03T14:18:05.625Z,2.90
2023-05-03T14:20:37.472Z,2.90
2023-05-03T14:23:09.138Z,3.30
2023-05-03T14:25:38.938Z,2.80
2023-05-03T14:28:09.273Z,2.40
2023-05-03T14:30:38.705Z,2.70
2023-05-03T14:33:11.504Z,2.40
2023-05-03T14:35:42.468Z,3.30
2023-05-03T14:38:13.858Z,3.50
2023-05-03T14:40:45.264Z,2.40
2023-05-03T14:43:16.145Z,4.50
2023-05-03T14:45:49.544Z,2.30
2023-05-03T14:48:21.695Z,2.40
2023-05-03T14:50:52.804Z,2.10
2023-05-03T14:53:23.298Z,2.30
2023-05-03T14:55:55.061Z,2.10
2023-05-03T14:58:26.102Z,2.40
2023-05-03T15:00:56.006Z,3.70
2023-05-03T15:03:27.167Z,2.30
2023-05-03T15:05:57.409Z,2.10
2023-05-03T15:08:28.070Z,2.10
2023-05-03T15:10:57.916Z,2.30
2023-05-03T15:13:28.545Z,2.30
2023-05-03T15:15:58.771Z,2.40
2023-05-03T15:18:28.484Z,2.50
2023-05-03T15:20:58.335Z,2.40
2023-05-03T15:23:28.294Z,2.70
2023-05-03T15:25:58.733Z,2.40
2023-05-03T15:28:28.302Z,2.90
2023-05-03T15:30:57.743Z,3.30
2023-05-03T15:33:27.049Z,2.90
2023-05-03T15:35:58.226Z,2.10
2023-05-03T15:38:29.410Z,2.20
2023-05-03T15:40:58.880Z,2.30
2023-05-03T15:43:28.407Z,3.20
2023-05-03T15:45:58.154Z,2.30
2023-05-03T15:48:27.536Z,1.80
2023-05-03T15:50:57.040Z,2.00
2023-05-03T15:53:27.234Z,2.50
2023-05-03T15:55:58.594Z,2.20
2023-05-03T15:58:31.614Z,2.10
2023-05-03T16:01:00.986Z,2.70
2023-05-03T16:03:30.317Z,2.50
2023-05-03T16:06:00.263Z,2.50
2023-05-03T16:08:29.894Z,2.20
2023-05-03T16:11:00.148Z,1.90
2023-05-03T16:13:30.731Z,2.40
2023-05-03T16:16:03.269Z,2.40
2023-05-03T16:18:33.118Z,2.60
2023-05-03T16:21:03.396Z,3.40
2023-05-03T16:23:33.224Z,2.70
2023-05-03T16:26:13.166Z,2.40
2023-05-03T16:28:42.375Z,3.00
2023-05-03T16:31:12.280Z,2.70
2023-05-03T16:33:41.897Z,2.10
2023-05-03T16:36:11.566Z,3.20
2023-05-03T16:38:40.897Z,2.50
2023-05-03T16:41:10.253Z,3.40
2023-05-03T16:43:40.128Z,2.40
2023-05-03T16:46:09.295Z,2.80
2023-05-03T16:48:38.448Z,3.20
2023-05-03T16:51:08.590Z,2.60
2023-05-03T16:53:39.275Z,2.50
2023-05-03T16:56:09.980Z,2.90
2023-05-03T16:58:41.389Z,2.40
2023-05-03T17:01:11.651Z,2.70
2023-05-03T17:03:43.242Z,3.60
2023-05-03T17:06:13.880Z,3.60
2023-05-03T17:08:44.058Z,3.30
2023-05-03T17:11:15.307Z,2.80
2023-05-03T17:13:45.053Z,3.20
2023-05-03T17:16:18.494Z,2.70
2023-05-03T17:18:48.388Z,3.60
2023-05-03T17:21:19.591Z,3.40
2023-05-03T17:23:49.374Z,3.00
2023-05-03T17:26:18.419Z,3.50
2023-05-03T17:28:49.090Z,4.50
2023-05-03T17:31:18.428Z,3.40
2023-05-03T17:33:48.282Z,4.50
2023-05-03T17:36:19.313Z,2.70
2023-05-03T17:38:50.621Z,1.90
2023-05-03T17:41:19.788Z,3.80
2023-05-03T17:43:51.505Z,3.30
2023-05-03T17:46:21.662Z,2.90
2023-05-03T17:48:52.848Z,3.30
2023-05-03T17:51:23.231Z,2.40
2023-05-03T17:53:52.949Z,2.60
2023-05-03T17:56:23.291Z,2.20
2023-05-03T17:58:53.313Z,2.30
2023-05-03T18:01:23.027Z,1.80
2023-05-03T18:03:53.009Z,3.00
2023-05-03T18:06:23.325Z,3.10
2023-05-03T18:08:53.048Z,3.20
2023-05-03T18:11:23.832Z,4.70
2023-05-03T18:13:53.235Z,3.10
2023-05-03T18:16:22.753Z,3.20
2023-05-03T18:18:53.970Z,2.10
2023-05-03T18:21:24.236Z,3.70
2023-05-03T18:23:53.671Z,3.50
2023-05-03T18:26:24.311Z,3.80
2023-05-03T18:28:54.643Z,3.00
2023-05-03T18:31:24.563Z,3.20
2023-05-03T18:33:54.234Z,3.50
2023-05-03T18:36:28.796Z,3.60
2023-05-03T18:39:00.699Z,2.80
2023-05-03T18:41:32.499Z,2.90
2023-05-03T18:44:06.246Z,2.70
2023-05-03T18:46:38.612Z,2.60
2023-05-03T18:49:10.552Z,3.60
2023-05-03T18:51:40.882Z,3.10
2023-05-03T18:54:12.027Z,3.50
2023-05-03T18:56:41.623Z,2.40
2023-05-03T18:59:11.509Z,2.30
2023-05-03T19:01:42.454Z,2.80
2023-05-03T19:04:16.182Z,2.60
2023-05-03T19:06:48.621Z,3.10
2023-05-03T19:09:18.737Z,2.20
2023-05-03T19:11:50.894Z,3.20
2023-05-03T19:14:22.861Z,2.80
2023-05-03T19:16:53.385Z,2.40
2023-05-03T19:19:23.965Z,3.10
2023-05-03T19:21:53.263Z,3.70
2023-05-03T19:24:24.275Z,3.00
2023-05-03T19:26:54.033Z,2.60
2023-05-03T19:29:24.155Z,2.90
2023-05-03T19:31:55.600Z,1.80
2023-05-03T19:34:25.211Z,2.30
2023-05-03T19:36:55.094Z,1.90
2023-05-03T19:39:26.361Z,3.40
2023-05-03T19:41:58.637Z,2.60
2023-05-03T19:44:32.577Z,2.10
2023-05-03T19:47:02.371Z,2.70
2023-05-03T19:49:32.239Z,2.10
2023-05-03T19:52:05.289Z,2.10
2023-05-03T19:54:35.709Z,1.90
2023-05-03T19:57:08.103Z,2.10
2023-05-03T19:59:38.297Z,2.00
2023-05-03T20:02:08.656Z,2.30
2023-05-03T20:04:38.248Z,3.90
2023-05-03T20:07:07.707Z,6.10
2023-05-03T20:09:38.111Z,3.80
2023-05-03T20:12:11.900Z,3.40
2023-05-03T20:14:43.783Z,3.60
2023-05-03T20:17:18.077Z,2.70
2023-05-03T20:19:51.466Z,2.40
2023-05-03T20:22:22.032Z,2.70
2023-05-03T20:24:53.607Z,2.20
2023-05-03T20:27:24.016Z,3.40
2023-05-03T20:29:53.900Z,2.60
2023-05-03T20:32:23.792Z,2.80
2023-05-03T20:34:54.237Z,3.50
2023-05-03T20:37:26.364Z,2.50
2023-05-03T20:39:58.514Z,2.20
2023-05-03T20:42:28.762Z,2.60
2023-05-03T20:45:00.494Z,3.50
2023-05-03T20:47:31.348Z,2.30
2023-05-03T20:50:02.742Z,2.30
2023-05-03T20:52:32.566Z,1.70
2023-05-03T20:55:02.541Z,1.80
2023-05-03T20:57:34.029Z,1.40
2023-05-03T21:00:05.815Z,1.70
2023-05-03T21:02:36.426Z,2.60
2023-05-03T21:05:07.162Z,1.40
2023-05-03T21:07:36.424Z,1.70
2023-05-03T21:10:08.100Z,2.70
2023-05-03T21:12:37.470Z,1.60
2023-05-03T21:15:07.386Z,2.30
2023-05-03T21:17:36.823Z,2.80
2023-05-03T21:20:07.214Z,2.00
2023-05-03T21:22:38.231Z,1.80
2023-05-03T21:25:09.578Z,1.50
2023-05-03T21:27:40.060Z,2.50
2023-05-03T21:30:10.542Z,1.70
2023-05-03T21:32:40.223Z,1.60
2023-05-03T21:35:09.854Z,1.60
2023-05-03T21:37:38.906Z,1.50
2023-05-03T21:40:09.444Z,2.90
2023-05-03T21:42:40.062Z,1.50
2023-05-03T21:45:11.622Z,1.50
2023-05-03T21:47:42.152Z,1.70
2023-05-03T21:50:12.994Z,4.20
2023-05-03T21:52:44.842Z,2.30
2023-05-03T21:55:14.509Z,2.10
2023-05-03T21:57:44.908Z,2.90
2023-05-03T22:00:20.597Z,2.40
2023-05-03T22:02:50.666Z,1.80
2023-05-03T22:05:19.853Z,2.00
2023-05-03T22:07:50.888Z,2.20
2023-05-03T22:10:20.109Z,1.90
2023-05-03T22:12:49.418Z,1.90
2023-05-03T22:15:20.151Z,2.10
2023-05-03T22:17:50.668Z,2.40
2023-05-03T22:20:19.495Z,2.20
2023-05-03T22:22:48.687Z,2.20
2023-05-03T22:25:30.090Z,2.80
2023-05-03T22:28:01.382Z,2.80
2023-05-03T22:30:32.818Z,2.40
2023-05-03T22:33:01.828Z,3.00
2023-05-03T22:35:30.841Z,3.60
2023-05-03T22:38:00.603Z,2.00
2023-05-03T22:40:30.301Z,2.10
2023-05-03T22:42:59.994Z,3.30
2023-05-03T22:45:29.568Z,2.00
2023-05-03T22:47:58.679Z,2.20
2023-05-03T22:50:28.126Z,1.50
2023-05-03T22:52:57.900Z,3.30
2023-05-03T22:55:28.064Z,2.00
2023-05-03T22:57:57.397Z,1.50
2023-05-03T23:00:27.592Z,2.20
2023-05-03T23:02:56.885Z,1.40
2023-05-03T23:05:26.359Z,1.60
2023-05-03T23:07:55.701Z,1.90
2023-05-03T23:10:25.647Z,1.50
2023-05-03T23:12:55.601Z,1.60
2023-05-03T23:15:25.605Z,1.60
2023-05-03T23:17:54.555Z,1.80
2023-05-03T23:20:23.767Z,1.50
2023-05-03T23:22:52.953Z,1.80
2023-05-03T23:25:22.040Z,2.20
2023-05-03T23:27:50.979Z,1.70
2023-05-03T23:30:20.357Z,2.10
2023-05-03T23:32:49.929Z,2.20
2023-05-03T23:35:21.762Z,2.00
2023-05-03T23:37:50.690Z,2.30
2023-05-03T23:40:19.721Z,2.10
2023-05-03T23:42:49.573Z,2.50
2023-05-03T23:45:19.022Z,1.80
2023-05-03T23:47:48.151Z,1.70
2023-05-03T23:50:17.301Z,2.60
2023-05-03T23:52:47.018Z,2.30
2023-05-03T23:55:16.127Z,2.20
2023-05-03T23:57:45.381Z,1.60
